Time,TemperatureF,DewpointF,PressureIn,WindDirection,WindDirectionDegrees,WindSpeedMPH,WindSpeedGustMPH,Humidity,HourlyPrecipIn,Conditions,Clouds,dailyrainin,SoftwareType,DateUTC
2013-04-03 00:08:00,28.1,27.0,30.13,East,79,0.0,0.0,94,0.00,,,0.00,weatherlink.com 1.10,2013-04-03 06:08:00,
2013-04-03 00:22:00,28.2,27.0,30.13,East,79,0.0,0.0,94,0.00,,,0.00,weatherlink.com 1.10,2013-04-03 06:22:00,
2013-04-03 00:38:00,28.3,27.0,30.13,SSW,211,0.0,1.0,94,0.00,,,0.00,weatherlink.com 1.10,2013-04-03 06:38:00,
2013-04-03 00:53:00,28.3,27.0,30.13,SE,145,0.0,0.0,94,0.00,,,0.00,weatherlink.com 1.10,2013-04-03 06:53:00,
2013-04-03 01:08:00,28.3,27.0,30.13,SW,215,0.0,0.0,94,0.00,,,0.00,weatherlink.com 1.10,2013-04-03 07:08:00,
2013-04-03 01:23:00,28.3,27.0,30.12,SSW,208,0.0,0.0,94,0.00,,,0.00,weatherlink.com 1.10,2013-04-03 07:23:00,
2013-04-03 01:38:00,28.3,27.0,30.12,SSW,208,0.0,0.0,94,0.00,,,0.00,weatherlink.com 1.10,2013-04-03 07:38:00,
2013-04-03 01:53:00,28.3,27.0,30.12,SSW,208,0.0,0.0,94,0.00,,,0.00,weatherlink.com 1.10,2013-04-03 07:53:00,
2013-04-03 02:08:00,28.3,27.0,30.12,SSW,208,0.0,0.0,94,0.00,,,0.00,weatherlink.com 1.10,2013-04-03 08:08:00,
2013-04-03 02:23:00,28.3,27.0,30.11,SSW,208,0.0,0.0,94,0.00,,,0.00,weatherlink.com 1.10,2013-04-03 08:23:00,
2013-04-03 02:38:00,28.3,27.0,30.11,SSW,208,0.0,0.0,94,0.00,,,0.00,weatherlink.com 1.10,2013-04-03 08:38:00,
2013-04-03 02:53:00,28.1,27.0,30.11,SSW,208,0.0,0.0,94,0.00,,,0.00,weatherlink.com 1.10,2013-04-03 08:53:00,
2013-04-03 03:08:00,27.8,26.0,30.11,SE,146,0.0,0.0,94,0.00,,,0.00,weatherlink.com 1.10,2013-04-03 09:08:00,
2013-04-03 03:23:00,28.0,27.0,30.11,ENE,78,4.0,5.0,94,0.00,,,0.00,weatherlink.com 1.10,2013-04-03 09:23:00,
2013-04-03 03:38:00,28.1,27.0,30.11,East,97,0.0,2.0,95,0.00,,,0.00,weatherlink.com 1.10,2013-04-03 09:38:00,
2013-04-03 03:53:00,27.9,27.0,30.11,East,97,0.0,0.0,95,0.00,,,0.00,weatherlink.com 1.10,2013-04-03 09:53:00,
2013-04-03 04:08:00,27.7,27.0,30.11,East,97,0.0,0.0,95,0.00,,,0.00,weatherlink.com 1.10,2013-04-03 10:08:00,
2013-04-03 04:23:00,27.3,26.0,30.11,West,267,0.0,0.0,95,0.00,,,0.00,weatherlink.com 1.10,2013-04-03 10:23:00,
2013-04-03 04:38:00,27.2,26.0,30.11,SW,228,0.0,0.0,95,0.00,,,0.00,weatherlink.com 1.10,2013-04-03 10:38:00,
2013-04-03 04:53:00,26.8,26.0,30.12,SSW,210,0.0,0.0,95,0.00,,,0.00,weatherlink.com 1.10,2013-04-03 10:53:00,
2013-04-03 05:08:00,26.7,26.0,30.13,SSW,210,0.0,0.0,95,0.00,,,0.00,weatherlink.com 1.10,2013-04-03 11:08:00,
2013-04-03 05:23:00,26.2,25.0,30.13,SSE,147,0.0,1.0,94,0.00,,,0.00,weatherlink.com 1.10,2013-04-03 11:23:00,
2013-04-03 05:38:00,26.1,25.0,30.14,SE,146,0.0,1.0,94,0.00,,,0.00,weatherlink.com 1.10,2013-04-03 11:38:00,
2013-04-03 05:53:00,25.8,24.0,30.15,SSE,147,0.0,0.0,94,0.00,,,0.00,weatherlink.com 1.10,2013-04-03 11:53:00,
2013-04-03 06:08:00,24.9,24.0,30.15,SW,220,0.0,0.0,94,0.00,,,0.00,weatherlink.com 1.10,2013-04-03 12:08:00,
2013-04-03 06:23:00,23.6,22.0,30.16,SSW,210,1.0,1.0,93,0.00,,,0.00,weatherlink.com 1.10,2013-04-03 12:23:00,
2013-04-03 06:38:00,22.6,21.0,30.16,SSW,210,0.0,2.0,93,0.00,,,0.00,weatherlink.com 1.10,2013-04-03 12:38:00,
2013-04-03 06:53:00,22.4,21.0,30.17,SSW,211,0.0,0.0,93,0.00,,,0.00,weatherlink.com 1.10,2013-04-03 12:53:00,
2013-04-03 07:08:00,22.6,21.0,30.17,SW,222,0.0,0.0,93,0.00,,,0.00,weatherlink.com 1.10,2013-04-03 13:08:00,
2013-04-03 07:23:00,22.5,21.0,30.18,SW,222,0.0,0.0,93,0.00,,,0.00,weatherlink.com 1.10,2013-04-03 13:23:00,
2013-04-03 07:38:00,26.2,25.0,30.18,SW,235,1.0,2.0,94,0.00,,,0.00,weatherlink.com 1.10,2013-04-03 13:38:00,
2013-04-03 07:53:00,28.5,27.0,30.19,SE,125,0.0,0.0,92,0.00,,,0.00,weatherlink.com 1.10,2013-04-03 13:53:00,
2013-04-03 08:09:00,30.9,27.0,30.19,West,269,0.0,5.0,86,0.00,,,0.00,weatherlink.com 1.10,2013-04-03 14:09:00,
2013-04-03 08:24:00,32.2,28.0,30.19,WSW,248,2.0,4.0,83,0.00,,,0.00,weatherlink.com 1.10,2013-04-03 14:24:00,
2013-04-03 08:39:00,33.0,28.0,30.19,SW,231,1.0,7.0,81,0.00,,,0.00,weatherlink.com 1.10,2013-04-03 14:39:00,
2013-04-03 08:54:00,34.0,29.0,30.19,SW,231,4.0,8.0,81,0.00,,,0.00,weatherlink.com 1.10,2013-04-03 14:54:00,
2013-04-03 09:09:00,35.2,29.0,30.19,West,266,5.0,5.0,79,0.00,,,0.00,weatherlink.com 1.10,2013-04-03 15:09:00,
2013-04-03 09:24:00,36.0,29.0,30.18,SW,221,4.0,8.0,77,0.00,,,0.00,weatherlink.com 1.10,2013-04-03 15:24:00,
2013-04-03 09:39:00,36.8,29.0,30.19,SW,234,4.0,8.0,74,0.02,,,0.02,weatherlink.com 1.10,2013-04-03 15:39:00,
2013-04-03 09:54:00,37.2,30.0,30.18,WSW,253,3.0,10.0,74,0.06,,,0.06,weatherlink.com 1.10,2013-04-03 15:54:00,
2013-04-03 10:09:00,37.4,30.0,30.18,SSW,200,3.0,9.0,74,0.10,,,0.10,weatherlink.com 1.10,2013-04-03 16:09:00,
2013-04-03 10:24:00,37.7,29.0,30.18,SW,222,3.0,11.0,72,0.13,,,0.13,weatherlink.com 1.10,2013-04-03 16:24:00,
2013-04-03 10:39:00,38.8,29.0,30.17,WSW,240,2.0,8.0,69,0.13,,,0.16,weatherlink.com 1.10,2013-04-03 16:39:00,
2013-04-03 11:09:00,40.8,30.0,30.17,SSW,200,4.0,6.0,65,0.08,,,0.18,weatherlink.com 1.10,2013-04-03 17:09:00,
2013-04-03 11:24:00,40.0,29.0,30.18,NNW,330,6.0,11.0,66,0.05,,,0.18,weatherlink.com 1.10,2013-04-03 17:24:00,
2013-04-03 11:39:00,39.3,28.0,30.18,WNW,292,4.0,12.0,64,0.02,,,0.18,weatherlink.com 1.10,2013-04-03 17:39:00,
2013-04-03 11:54:00,40.2,29.0,30.17,NW,311,6.0,9.0,64,0.01,,,0.19,weatherlink.com 1.10,2013-04-03 17:54:00,
2013-04-03 12:09:00,40.7,29.0,30.17,West,270,6.0,13.0,64,0.03,,,0.21,weatherlink.com 1.10,2013-04-03 18:09:00,
2013-04-03 12:24:00,41.2,27.0,30.17,West,279,4.0,10.0,57,0.07,,,0.25,weatherlink.com 1.10,2013-04-03 18:24:00,
2013-04-03 12:39:00,42.0,26.0,30.17,West,272,2.0,11.0,54,0.10,,,0.28,weatherlink.com 1.10,2013-04-03 18:39:00,
2013-04-03 12:54:00,41.9,26.0,30.17,SW,225,7.0,11.0,54,0.12,,,0.31,weatherlink.com 1.10,2013-04-03 18:54:00,
2013-04-03 13:09:00,42.7,26.0,30.17,WNW,290,6.0,12.0,52,0.12,,,0.33,weatherlink.com 1.10,2013-04-03 19:09:00,
2013-04-03 13:24:00,43.8,25.0,30.17,NNW,345,4.0,11.0,47,0.09,,,0.34,weatherlink.com 1.10,2013-04-03 19:24:00,
2013-04-03 13:39:00,43.9,24.0,30.17,WSW,240,7.0,13.0,46,0.05,,,0.34,weatherlink.com 1.10,2013-04-03 19:39:00,
2013-04-03 13:55:00,44.2,23.0,30.16,WNW,285,7.0,13.0,43,0.02,,,0.34,weatherlink.com 1.10,2013-04-03 19:55:00,
2013-04-03 14:10:00,44.8,22.0,30.16,WNW,291,7.0,12.0,41,0.01,,,0.34,weatherlink.com 1.10,2013-04-03 20:10:00,
2013-04-03 14:25:00,45.3,23.0,30.16,WNW,283,7.0,10.0,42,0.00,,,0.34,weatherlink.com 1.10,2013-04-03 20:25:00,
2013-04-03 14:40:00,44.5,22.0,30.16,WSW,257,3.0,11.0,41,0.00,,,0.34,weatherlink.com 1.10,2013-04-03 20:40:00,
2013-04-03 14:55:00,44.7,24.0,30.16,WNW,288,10.0,12.0,44,0.00,,,0.34,weatherlink.com 1.10,2013-04-03 20:55:00,
2013-04-03 15:10:00,45.3,24.0,30.15,SW,217,5.0,12.0,44,0.00,,,0.34,weatherlink.com 1.10,2013-04-03 21:10:00,
2013-04-03 15:25:00,46.8,24.0,30.15,West,259,9.0,15.0,41,0.00,,,0.34,weatherlink.com 1.10,2013-04-03 21:25:00,
2013-04-03 15:40:00,47.1,24.0,30.15,WSW,238,3.0,16.0,41,0.00,,,0.34,weatherlink.com 1.10,2013-04-03 21:40:00,
2013-04-03 15:55:00,47.3,24.0,30.14,SW,217,18.0,18.0,40,0.00,,,0.34,weatherlink.com 1.10,2013-04-03 21:55:00,
2013-04-03 16:10:00,46.6,25.0,30.14,NW,311,7.0,22.0,43,0.00,,,0.34,weatherlink.com 1.10,2013-04-03 22:10:00,
2013-04-03 16:25:00,46.9,24.0,30.13,West,270,6.0,14.0,40,0.00,,,0.34,weatherlink.com 1.10,2013-04-03 22:25:00,
2013-04-03 16:40:00,46.9,24.0,30.13,West,260,4.0,19.0,40,0.00,,,0.34,weatherlink.com 1.10,2013-04-03 22:40:00,
2013-04-03 16:55:00,47.0,25.0,30.13,NW,321,5.0,16.0,42,0.00,,,0.34,weatherlink.com 1.10,2013-04-03 22:55:00,
2013-04-03 17:10:00,46.9,24.0,30.12,WNW,285,7.0,18.0,41,0.00,,,0.34,weatherlink.com 1.10,2013-04-03 23:10:00,
2013-04-03 17:25:00,46.5,24.0,30.12,West,266,6.0,18.0,41,0.00,,,0.34,weatherlink.com 1.10,2013-04-03 23:25:00,
2013-04-03 17:40:00,46.9,24.0,30.13,WNW,288,6.0,15.0,40,0.00,,,0.34,weatherlink.com 1.10,2013-04-03 23:40:00,
2013-04-03 17:55:00,46.3,22.0,30.13,West,271,10.0,14.0,39,0.00,,,0.34,weatherlink.com 1.10,2013-04-03 23:55:00,
2013-04-03 18:10:00,45.6,22.0,30.13,West,260,1.0,15.0,40,0.00,,,0.34,weatherlink.com 1.10,2013-04-04 00:10:00,
2013-04-03 18:25:00,45.7,22.0,30.13,NW,315,4.0,11.0,40,0.00,,,0.34,weatherlink.com 1.10,2013-04-04 00:25:00,
2013-04-03 18:40:00,45.2,23.0,30.13,West,276,3.0,9.0,42,0.00,,,0.34,weatherlink.com 1.10,2013-04-04 00:40:00,
2013-04-03 18:55:00,43.3,23.0,30.14,NW,307,1.0,8.0,44,0.00,,,0.34,weatherlink.com 1.10,2013-04-04 00:55:00,
2013-04-03 19:10:00,42.5,23.0,30.15,West,280,3.0,5.0,47,0.00,,,0.34,weatherlink.com 1.10,2013-04-04 01:10:00,
2013-04-03 19:25:00,41.9,23.0,30.14,West,279,0.0,5.0,48,0.00,,,0.34,weatherlink.com 1.10,2013-04-04 01:25:00,
2013-04-03 19:40:00,40.8,24.0,30.15,WSW,249,2.0,6.0,51,0.00,,,0.34,weatherlink.com 1.10,2013-04-04 01:40:00,
2013-04-03 19:55:00,40.0,24.0,30.15,WSW,250,0.0,5.0,54,0.00,,,0.34,weatherlink.com 1.10,2013-04-04 01:55:00,
2013-04-03 20:10:00,38.1,24.0,30.15,WSW,252,0.0,1.0,58,0.00,,,0.34,weatherlink.com 1.10,2013-04-04 02:10:00,
2013-04-03 20:25:00,36.9,23.0,30.16,WSW,249,0.0,1.0,57,0.00,,,0.34,weatherlink.com 1.10,2013-04-04 02:25:00,
2013-04-03 20:40:00,35.6,24.0,30.16,SW,228,0.0,3.0,63,0.00,,,0.34,weatherlink.com 1.10,2013-04-04 02:40:00,
2013-04-03 20:55:00,34.5,23.0,30.17,NE,52,2.0,4.0,64,0.00,,,0.34,weatherlink.com 1.10,2013-04-04 02:55:00,
2013-04-03 21:10:00,33.4,23.0,30.18,WSW,245,0.0,1.0,66,0.00,,,0.34,weatherlink.com 1.10,2013-04-04 03:10:00,
2013-04-03 21:25:00,31.8,23.0,30.18,WSW,253,0.0,2.0,71,0.00,,,0.34,weatherlink.com 1.10,2013-04-04 03:25:00,
2013-04-03 21:40:00,31.4,23.0,30.18,WSW,240,1.0,4.0,71,0.00,,,0.34,weatherlink.com 1.10,2013-04-04 03:40:00,
2013-04-03 21:55:00,31.8,22.0,30.18,SSW,209,0.0,2.0,66,0.00,,,0.34,weatherlink.com 1.10,2013-04-04 03:55:00,
2013-04-03 22:10:00,32.8,21.0,30.18,SSW,212,0.0,5.0,63,0.00,,,0.34,weatherlink.com 1.10,2013-04-04 04:10:00,
2013-04-03 22:25:00,34.8,20.0,30.18,SW,229,2.0,13.0,56,0.00,,,0.34,weatherlink.com 1.10,2013-04-04 04:25:00,
2013-04-03 22:40:00,37.1,22.0,30.17,West,279,5.0,20.0,54,0.00,,,0.34,weatherlink.com 1.10,2013-04-04 04:40:00,
2013-04-03 22:55:00,37.1,21.0,30.17,ENE,77,3.0,6.0,52,0.00,,,0.34,weatherlink.com 1.10,2013-04-04 04:55:00,
2013-04-03 23:10:00,36.3,21.0,30.18,NNE,33,0.0,4.0,55,0.00,,,0.34,weatherlink.com 1.10,2013-04-04 05:10:00,
2013-04-03 23:25:00,36.9,21.0,30.17,WSW,252,0.0,5.0,53,0.00,,,0.34,weatherlink.com 1.10,2013-04-04 05:25:00,
2013-04-03 23:40:00,35.7,21.0,30.18,WSW,242,0.0,4.0,55,0.00,,,0.34,weatherlink.com 1.10,2013-04-04 05:40:00,
2013-04-03 23:55:00,36.0,22.0,30.17,East,82,2.0,3.0,56,0.00,,,0.34,weatherlink.com 1.10,2013-04-04 05:55:00,